Time;durP1;ratioP1;P1;durP2;ratioP2;P2;SDS_P1;SDS_P2;PMS_P1;PMS_P2;Temp;Humidity;BMP_temperature;BMP_pressure;BME280_temperature;BME280_humidity;BME280_pressure;Samples;Min_cycle;Max_cycle;Signal;HPM_P1;HPM_P2
2023/12/29 00:01:29;;;;;;;2.58;1.20;;;;;;;20.92;42.58;100368.84;5025696;28;20057;-69
2023/12/29 00:03:55;;;;;;;1.10;0.80;;;;;;;20.86;42.38;100344.00;5054964;28;20597;-70
2023/12/29 00:06:20;;;;;;;1.52;1.17;;;;;;;20.91;42.39;100367.22;5052252;28;20036;-70
2023/12/29 00:08:46;;;;;;;1.95;1.20;;;;;;;20.89;42.32;100354.19;5022772;28;20048;-69
2023/12/29 00:11:20;;;;;;;2.15;1.20;;;;;;;20.90;42.31;100376.97;5045090;28;20044;-69
2023/12/29 00:13:45;;;;;;;3.95;1.38;;;;;;;20.92;42.22;100350.31;5060218;28;20051;-69
2023/12/29 00:16:11;;;;;;;3.38;1.27;;;;;;;20.76;42.39;100332.94;5009281;28;20036;-70
2023/12/29 00:18:37;;;;;;;3.42;1.35;;;;;;;20.89;42.54;100342.78;5059206;28;20097;-70
2023/12/29 00:21:03;;;;;;;2.75;1.15;;;;;;;20.88;42.55;100349.09;5014125;28;20090;-69
2023/12/29 00:23:29;;;;;;;2.17;1.35;;;;;;;20.89;42.37;100350.72;5054364;28;20064;-68
2023/12/29 00:25:54;;;;;;;3.58;1.65;;;;;;;20.85;42.34;100341.53;5012181;28;20653;-69
2023/12/29 00:28:20;;;;;;;1.00;0.90;;;;;;;20.87;42.60;100350.91;5073905;28;20040;-69
2023/12/29 00:30:45;;;;;;;1.40;0.82;;;;;;;20.83;42.44;100347.03;5014921;28;20043;-70
2023/12/29 00:33:11;;;;;;;1.65;1.08;;;;;;;20.90;42.52;100360.28;5060882;28;20036;-70
2023/12/29 00:35:38;;;;;;;2.63;1.35;;;;;;;20.85;42.54;100360.88;5045605;28;20025;-70
2023/12/29 00:38:03;;;;;;;3.55;1.30;;;;;;;20.81;42.60;100351.69;5065106;28;20044;-69
2023/12/29 00:40:30;;;;;;;2.05;1.10;;;;;;;20.85;42.30;100354.78;5039962;28;20044;-70
2023/12/29 00:42:56;;;;;;;1.75;1.30;;;;;;;20.88;42.34;100343.78;5064352;28;20055;-69
2023/12/29 00:45:21;;;;;;;3.70;1.25;;;;;;;20.85;42.21;100344.19;5021199;28;20067;-69
2023/12/29 00:47:48;;;;;;;4.05;1.00;;;;;;;20.87;42.28;100345.63;5068391;28;20037;-70
2023/12/29 00:50:14;;;;;;;2.70;1.38;;;;;;;20.89;42.39;100327.72;5036642;28;20118;-70
2023/12/29 00:52:39;;;;;;;2.35;1.30;;;;;;;20.88;42.48;100325.25;5065435;28;20372;-69
2023/12/29 00:55:06;;;;;;;1.55;1.08;;;;;;;20.84;42.46;100316.91;5023279;28;20047;-70
2023/12/29 00:57:31;;;;;;;2.78;1.48;;;;;;;20.59;42.23;100284.84;5068062;28;20178;-69
2023/12/29 00:59:57;;;;;;;2.70;1.27;;;;;;;20.84;42.17;100324.84;5050988;28;20056;-69
2023/12/29 01:02:22;;;;;;;1.92;1.15;;;;;;;20.85;42.43;100317.72;5065966;28;20040;-69
2023/12/29 01:04:48;;;;;;;2.47;1.20;;;;;;;20.85;42.24;100326.47;5020356;28;20040;-69
2023/12/29 01:07:14;;;;;;;1.65;1.02;;;;;;;20.85;42.32;100315.91;5067153;28;20044;-70
2023/12/29 01:09:42;;;;;;;1.67;1.23;;;;;;;20.86;42.32;100306.13;5023696;28;20952;-69
2023/12/29 01:12:08;;;;;;;1.42;1.08;;;;;;;20.83;42.51;100319.75;5067989;28;20155;-69
2023/12/29 01:14:33;;;;;;;2.15;1.08;;;;;;;20.83;42.39;100307.34;5029055;28;20040;-70
2023/12/29 01:16:59;;;;;;;1.52;1.10;;;;;;;20.83;42.56;100320.56;5058942;28;20036;-70
2023/12/29 01:19:24;;;;;;;2.40;1.17;;;;;;;20.85;42.31;100307.97;5024803;28;27256;-69
2023/12/29 01:21:50;;;;;;;2.30;1.10;;;;;;;20.83;42.26;100286.16;5063978;28;20052;-70
2023/12/29 01:24:15;;;;;;;1.27;0.80;;;;;;;20.82;42.62;100295.09;5052781;28;20036;-70
2023/12/29 01:26:41;;;;;;;2.17;1.20;;;;;;;20.83;42.46;100291.47;5084413;28;20044;-69
2023/12/29 01:29:06;;;;;;;3.05;1.38;;;;;;;20.81;42.49;100283.69;5061976;28;20051;-69
2023/12/29 01:31:32;;;;;;;3.05;1.10;;;;;;;20.74;42.49;100285.53;5024406;28;20072;-69
2023/12/29 01:33:58;;;;;;;2.10;1.00;;;;;;;20.76;42.44;100295.91;5067767;28;20044;-70
2023/12/29 01:36:24;;;;;;;2.22;1.20;;;;;;;20.79;42.64;100306.91;5015013;28;21195;-70
2023/12/29 01:38:49;;;;;;;1.58;1.42;;;;;;;20.74;42.83;100292.63;5066661;28;20433;-70
2023/12/29 01:41:15;;;;;;;4.45;1.58;;;;;;;20.77;42.45;100303.63;5018617;28;20032;-69
2023/12/29 01:44:20;;;;;;;1.40;1.00;;;;;;;20.74;42.50;100301.41;5050919;28;20040;-69
2023/12/29 01:46:52;;;;;;;4.30;1.20;;;;;;;20.76;42.71;100325.81;5034927;28;20055;-69
2023/12/29 01:49:18;;;;;;;1.42;0.85;;;;;;;20.78;42.45;100331.72;5012986;28;20067;-70
2023/12/29 01:51:46;;;;;;;2.63;1.77;;;;;;;20.77;42.58;100294.88;5062427;28;20128;-70
2023/12/29 01:54:13;;;;;;;1.85;1.08;;;;;;;20.81;42.51;100282.88;5016382;28;20033;-68
2023/12/29 01:56:39;;;;;;;1.45;1.20;;;;;;;20.77;42.50;100273.72;5063875;28;20047;-69
2023/12/29 01:59:05;;;;;;;2.67;1.02;;;;;;;20.78;42.42;100297.34;5031909;28;20036;-69
2023/12/29 02:01:31;;;;;;;2.45;1.27;;;;;;;20.77;42.50;100308.13;5062945;28;20532;-70
2023/12/29 02:03:57;;;;;;;2.05;1.30;;;;;;;20.76;42.61;100311.78;4998820;28;20253;-71
2023/12/29 02:06:24;;;;;;;2.67;1.15;;;;;;;20.78;42.46;100339.66;5062550;28;20741;-71
2023/12/29 02:08:51;;;;;;;2.78;1.02;;;;;;;20.79;42.37;100295.50;5013158;28;20045;-71
2023/12/29 02:11:17;;;;;;;2.38;1.05;;;;;;;20.77;42.53;100316.06;5063784;28;20044;-71
2023/12/29 02:13:43;;;;;;;1.65;1.20;;;;;;;20.67;42.94;100328.84;5010381;28;20824;-70
2023/12/29 02:16:27;;;;;;;1.20;1.10;;;;;;;20.71;42.63;100324.78;5061948;28;20457;-71
2023/12/29 02:18:54;;;;;;;2.38;1.10;;;;;;;20.75;42.49;100329.47;5014320;28;20171;-70
2023/12/29 02:21:25;;;;;;;1.50;0.93;;;;;;;20.71;42.57;100315.03;5062186;28;20456;-70
2023/12/29 02:23:51;;;;;;;0.93;0.73;;;;;;;20.71;42.54;100293.84;5012257;28;20671;-70
2023/12/29 02:26:20;;;;;;;2.05;1.15;;;;;;;20.68;42.67;100285.50;5064316;28;20047;-71
2023/12/29 02:28:53;;;;;;;2.47;1.13;;;;;;;20.65;42.60;100283.25;5049064;28;20036;-70
2023/12/29 02:31:22;;;;;;;3.08;1.23;;;;;;;20.68;42.74;100296.91;5063279;28;20040;-70
2023/12/29 02:33:50;;;;;;;16.45;12.85;;;;;;;20.59;42.85;100303.38;5013139;28;20041;-71
2023/12/29 02:36:17;;;;;;;1.15;0.90;;;;;;;20.64;42.75;100308.88;5063918;28;20472;-69
2023/12/29 02:38:43;;;;;;;1.45;0.88;;;;;;;20.65;42.67;100286.72;5016215;28;20101;-70
2023/12/29 02:41:09;;;;;;;2.30;1.42;;;;;;;20.65;42.81;100291.19;5065366;28;20041;-69
2023/12/29 02:43:35;;;;;;;1.27;1.00;;;;;;;20.62;42.75;100297.66;5015695;28;20035;-71
2023/12/29 02:46:00;;;;;;;2.15;1.05;;;;;;;20.63;42.65;100279.97;5060494;28;20732;-71
2023/12/29 02:48:26;;;;;;;4.03;1.92;;;;;;;20.49;42.80;100260.59;5031322;28;20055;-70
2023/12/29 02:50:51;;;;;;;2.45;1.27;;;;;;;20.58;42.54;100277.94;5062563;28;20040;-70
2023/12/29 02:53:17;;;;;;;3.60;1.17;;;;;;;20.62;42.67;100259.81;5049476;28;20031;-69
2023/12/29 02:55:42;;;;;;;0.98;0.70;;;;;;;20.60;42.83;100267.16;5059376;28;20020;-69
2023/12/29 02:58:09;;;;;;;3.17;1.00;;;;;;;20.59;42.81;100270.81;5014330;28;20043;-70
2023/12/29 03:00:34;;;;;;;1.80;0.90;;;;;;;20.56;42.82;100266.72;5061328;28;20048;-70
2023/12/29 03:03:00;;;;;;;1.55;0.90;;;;;;;20.57;42.69;100254.31;5014619;28;20041;-70
2023/12/29 03:05:25;;;;;;;2.15;1.27;;;;;;;20.57;42.70;100263.06;5063222;28;20047;-70
2023/12/29 03:07:51;;;;;;;1.95;1.08;;;;;;;20.54;42.75;100257.38;5031641;28;20445;-70
2023/12/29 03:10:17;;;;;;;1.77;1.10;;;;;;;20.57;42.78;100256.97;5045507;28;20047;-70
2023/12/29 03:12:42;;;;;;;1.02;0.82;;;;;;;20.56;42.65;100258.78;5064384;28;20082;-70
2023/12/29 03:15:08;;;;;;;2.58;1.05;;;;;;;20.58;42.49;100259.41;5062133;28;20531;-70
2023/12/29 03:17:34;;;;;;;2.05;0.90;;;;;;;20.56;42.80;100240.28;5014100;28;20038;-69
2023/12/29 03:19:59;;;;;;;4.20;1.55;;;;;;;20.53;42.77;100248.63;5065165;28;20045;-70
2023/12/29 03:22:25;;;;;;;1.48;0.95;;;;;;;20.50;42.82;100235.78;5029653;28;20036;-70
2023/12/29 03:24:50;;;;;;;2.60;1.23;;;;;;;20.56;42.86;100248.22;5062860;28;20079;-70
2023/12/29 03:27:16;;;;;;;2.28;0.98;;;;;;;20.44;42.61;100225.97;5027995;28;20037;-70
2023/12/29 03:29:42;;;;;;;4.93;1.48;;;;;;;20.56;42.82;100244.75;5049091;28;20048;-70
2023/12/29 03:32:11;;;;;;;2.35;0.82;;;;;;;20.52;42.87;100236.41;5059786;28;20039;-70
2023/12/29 03:34:38;;;;;;;1.85;0.98;;;;;;;20.50;42.76;100244.53;5016883;28;20055;-69
2023/12/29 03:37:04;;;;;;;2.17;1.00;;;;;;;20.52;42.67;100249.63;5079153;28;20614;-70
2023/12/29 03:39:29;;;;;;;1.55;0.75;;;;;;;20.50;42.61;100244.53;5011131;28;20044;-70
2023/12/29 03:41:55;;;;;;;1.40;0.77;;;;;;;20.47;42.61;100231.72;5062453;28;20037;-70
2023/12/29 03:44:22;;;;;;;1.83;0.93;;;;;;;20.45;42.85;100243.47;5013296;28;20028;-70
2023/12/29 03:46:49;;;;;;;1.80;0.80;;;;;;;20.47;42.86;100241.47;5047390;28;20130;-70
2023/12/29 03:49:16;;;;;;;1.52;0.90;;;;;;;20.51;42.79;100256.75;5058632;28;20032;-70
2023/12/29 03:51:41;;;;;;;2.65;1.10;;;;;;;20.53;42.75;100248.63;5030319;28;20033;-69
2023/12/29 03:54:07;;;;;;;2.45;1.20;;;;;;;20.51;42.59;100258.59;5060503;28;20649;-69
2023/12/29 03:56:32;;;;;;;1.05;0.80;;;;;;;20.43;42.60;100242.88;5015572;28;20036;-70
2023/12/29 03:58:58;;;;;;;1.48;0.52;;;;;;;20.43;42.82;100229.66;5060444;28;20059;-69
2023/12/29 04:01:25;;;;;;;2.00;1.27;;;;;;;20.52;42.81;100249.63;5012854;28;20091;-70
2023/12/29 04:03:50;;;;;;;1.38;1.17;;;;;;;20.51;42.83;100253.28;5060639;28;20064;-70
2023/12/29 04:06:16;;;;;;;3.95;1.15;;;;;;;20.52;42.74;100261.03;5047967;28;20024;-70
2023/12/29 04:08:42;;;;;;;2.50;1.35;;;;;;;20.50;42.77;100255.13;5062762;28;21844;-69
2023/12/29 04:11:07;;;;;;;1.95;0.90;;;;;;;20.52;42.82;100249.63;5014072;28;20048;-70
2023/12/29 04:13:34;;;;;;;4.90;1.20;;;;;;;20.53;42.63;100248.63;5062449;28;20067;-69
2023/12/29 04:16:00;;;;;;;2.72;1.10;;;;;;;20.47;42.72;100241.47;5014796;28;20032;-70
2023/12/29 04:18:28;;;;;;;2.90;1.40;;;;;;;20.48;42.97;100237.81;5063036;28;20690;-68
2023/12/29 04:20:54;;;;;;;1.83;0.82;;;;;;;20.47;42.85;100252.88;5012433;28;20044;-70
2023/12/29 04:23:19;;;;;;;2.08;1.23;;;;;;;20.48;42.80;100246.56;5045632;28;20049;-70
2023/12/29 04:25:45;;;;;;;2.63;1.05;;;;;;;20.48;42.70;100237.81;5063492;28;20058;-69
2023/12/29 04:28:11;;;;;;;1.33;0.90;;;;;;;20.51;42.79;100245.34;5061693;28;20052;-70
2023/12/29 04:30:37;;;;;;;1.80;1.13;;;;;;;20.49;42.81;100247.38;5012748;28;20094;-69
2023/12/29 04:33:03;;;;;;;3.60;1.65;;;;;;;20.49;42.76;100234.97;5063030;28;20044;-70
2023/12/29 04:35:30;;;;;;;2.50;1.15;;;;;;;20.48;42.85;100245.75;5015702;28;20120;-69
2023/12/29 04:37:55;;;;;;;1.83;1.52;;;;;;;20.37;42.79;100233.88;5078838;28;21552;-70
2023/12/29 04:40:21;;;;;;;1.90;0.93;;;;;;;20.47;42.62;100250.22;5012377;28;20045;-69
2023/12/29 04:42:46;;;;;;;1.73;0.85;;;;;;;20.51;42.75;100261.22;5063701;28;20043;-70
2023/12/29 04:45:12;;;;;;;1.38;1.00;;;;;;;20.48;42.65;100258.97;5012038;28;20090;-69
2023/12/29 04:47:38;;;;;;;1.67;0.82;;;;;;;20.48;42.74;100262.44;5062106;28;20044;-70
2023/12/29 04:50:05;;;;;;;2.92;0.95;;;;;;;20.43;42.69;100253.44;5046981;28;20040;-70
2023/12/29 04:52:31;;;;;;;3.83;1.25;;;;;;;20.45;42.85;100272.56;5060352;28;20376;-69
2023/12/29 04:54:57;;;;;;;2.15;1.17;;;;;;;20.49;42.73;100277.28;5011102;28;20056;-70
2023/12/29 04:57:22;;;;;;;2.85;1.08;;;;;;;20.45;42.91;100277.88;5060622;28;20043;-70
2023/12/29 04:59:48;;;;;;;4.53;1.23;;;;;;;20.46;42.85;100285.59;5014204;28;20052;-69
2023/12/29 05:02:13;;;;;;;1.77;0.80;;;;;;;20.44;42.66;100274.41;5058607;28;20041;-70
2023/12/29 05:04:39;;;;;;;1.40;0.95;;;;;;;20.45;42.85;100283.97;5013801;28;20101;-70
2023/12/29 05:07:09;;;;;;;1.98;1.08;;;;;;;20.47;42.86;100286.44;5061402;28;20086;-69
2023/12/29 05:09:35;;;;;;;2.17;1.10;;;;;;;20.47;42.88;100283.81;5011384;28;20385;-69
2023/12/29 05:12:00;;;;;;;2.33;1.20;;;;;;;20.43;42.81;100269.31;5047065;28;20051;-69
2023/12/29 05:14:26;;;;;;;2.80;1.35;;;;;;;20.40;42.79;100270.50;5061484;28;20036;-70
2023/12/29 05:16:51;;;;;;;2.70;1.17;;;;;;;20.44;42.81;100298.19;5014505;28;20040;-70
2023/12/29 05:19:17;;;;;;;2.15;1.25;;;;;;;20.42;42.67;100297.59;5060681;28;20045;-69
2023/12/29 05:21:42;;;;;;;3.60;1.45;;;;;;;20.45;42.79;100304.31;5014003;28;20068;-69
2023/12/29 05:24:08;;;;;;;1.60;1.10;;;;;;;20.44;42.81;100300.03;5061154;28;20547;-69
2023/12/29 05:26:33;;;;;;;3.88;1.25;;;;;;;20.43;42.71;100299.22;5018045;28;20041;-69
2023/12/29 05:28:59;;;;;;;3.15;1.27;;;;;;;20.43;42.83;100307.16;5062679;28;20605;-70
2023/12/29 05:31:24;;;;;;;2.67;1.27;;;;;;;20.45;42.73;100309.59;5016137;28;20130;-69
2023/12/29 05:33:50;;;;;;;2.85;1.20;;;;;;;20.46;42.71;100319.97;5065581;28;20457;-68
2023/12/29 05:36:16;;;;;;;3.15;1.30;;;;;;;20.46;42.57;100313.88;5051474;28;20059;-70
2023/12/29 05:38:46;;;;;;;3.10;1.23;;;;;;;20.44;42.76;100311.44;5064285;28;20468;-69
2023/12/29 05:41:15;;;;;;;2.22;1.38;;;;;;;20.45;42.72;100318.34;5016050;28;20032;-69
2023/12/29 05:43:41;;;;;;;4.13;1.20;;;;;;;20.37;42.65;100301.81;5064399;28;20041;-69
2023/12/29 05:46:12;;;;;;;1.88;1.10;;;;;;;20.40;42.83;100293.47;5016136;28;20043;-69
2023/12/29 05:48:40;;;;;;;2.65;1.10;;;;;;;20.44;42.65;100295.56;5059693;28;20464;-70
2023/12/29 05:51:10;;;;;;;2.67;1.33;;;;;;;20.45;42.57;100296.38;5016891;28;20044;-70
2023/12/29 05:53:36;;;;;;;2.22;1.02;;;;;;;20.38;42.75;100298.97;5064429;28;20047;-69
2023/12/29 05:56:02;;;;;;;1.75;1.20;;;;;;;20.29;42.68;100286.94;5018609;28;20111;-70
2023/12/29 05:58:28;;;;;;;2.47;1.38;;;;;;;20.36;42.89;100300.19;5062177;28;20045;-68
2023/12/29 06:00:57;;;;;;;1.27;1.10;;;;;;;20.35;42.87;100303.84;5050608;28;20068;-70
2023/12/29 06:03:23;;;;;;;3.22;1.60;;;;;;;20.37;42.86;100310.56;5067674;28;20040;-70
2023/12/29 06:05:49;;;;;;;3.22;1.15;;;;;;;20.32;42.88;100296.31;5013742;28;20052;-70
2023/12/29 06:08:14;;;;;;;4.25;1.40;;;;;;;20.34;42.97;100297.72;5063610;28;20041;-69
2023/12/29 06:10:40;;;;;;;1.85;1.02;;;;;;;20.37;42.99;100301.81;5017367;28;20036;-69
2023/12/29 06:13:06;;;;;;;3.25;1.20;;;;;;;20.37;42.98;100299.97;5065504;28;20615;-69
2023/12/29 06:15:32;;;;;;;4.20;1.35;;;;;;;20.35;43.07;100309.13;5014800;28;20044;-69
2023/12/29 06:17:58;;;;;;;2.38;1.25;;;;;;;20.32;42.94;100296.31;5063348;28;20040;-69
2023/12/29 06:20:24;;;;;;;1.23;0.80;;;;;;;20.37;42.92;100294.69;5017511;28;20453;-70
2023/12/29 06:22:49;;;;;;;5.78;2.10;;;;;;;20.40;42.96;100289.00;5062102;28;20151;-70
2023/12/29 06:25:15;;;;;;;3.75;1.10;;;;;;;20.31;42.93;100274.34;5049818;28;20086;-70
2023/12/29 06:27:41;;;;;;;2.83;1.15;;;;;;;20.36;42.97;100281.66;5063677;28;20040;-69
2023/12/29 06:30:13;;;;;;;1.75;1.08;;;;;;;20.35;42.94;100272.91;5018587;28;20764;-69
2023/12/29 06:32:39;;;;;;;3.05;1.60;;;;;;;20.26;43.08;100266.16;5065830;28;20082;-70
2023/12/29 06:35:06;;;;;;;4.55;1.38;;;;;;;20.35;43.04;100285.31;5016741;28;20040;-69
2023/12/29 06:37:32;;;;;;;3.38;1.58;;;;;;;20.37;43.10;100285.94;5066160;28;20040;-69
2023/12/29 06:39:57;;;;;;;3.65;1.48;;;;;;;20.38;43.09;100285.75;5015044;28;20036;-70
2023/12/29 06:42:23;;;;;;;4.03;1.33;;;;;;;20.36;43.09;100294.88;5065240;28;20043;-70
2023/12/29 06:44:49;;;;;;;3.20;1.50;;;;;;;20.37;42.93;100280.66;5013981;28;20032;-70
2023/12/29 06:47:14;;;;;;;3.03;1.50;;;;;;;20.38;42.94;100277.00;5048996;28;20037;-69
2023/12/29 06:49:40;;;;;;;3.92;1.45;;;;;;;20.40;43.16;100282.91;5065680;28;20045;-70
2023/12/29 06:52:06;;;;;;;2.65;1.13;;;;;;;20.36;43.09;100282.47;5015065;28;20550;-70
2023/12/29 06:54:33;;;;;;;1.88;1.10;;;;;;;20.37;43.13;100284.13;5065440;28;20041;-69
2023/12/29 06:56:58;;;;;;;2.63;1.23;;;;;;;20.40;43.02;100293.47;5028583;28;20024;-70
2023/12/29 06:59:24;;;;;;;2.25;0.98;;;;;;;20.38;43.11;100291.03;5064510;28;20040;-70
2023/12/29 07:01:49;;;;;;;3.08;1.20;;;;;;;20.37;43.10;100280.66;5016867;28;20049;-70
2023/12/29 07:04:15;;;;;;;2.35;1.40;;;;;;;20.34;42.98;100273.13;5060889;28;20493;-69
2023/12/29 07:06:41;;;;;;;2.50;1.17;;;;;;;20.38;43.15;100274.34;5010708;28;20522;-71
2023/12/29 07:09:07;;;;;;;2.60;1.33;;;;;;;20.38;43.02;100298.16;5047568;28;20028;-69
2023/12/29 07:11:33;;;;;;;5.45;1.63;;;;;;;20.36;43.03;100279.84;5063654;28;20090;-70
2023/12/29 07:13:59;;;;;;;2.55;1.05;;;;;;;20.37;43.08;100278.81;5014883;28;20056;-69
2023/12/29 07:16:24;;;;;;;2.63;1.30;;;;;;;20.40;43.06;100282.91;5063477;28;20046;-70
2023/12/29 07:18:50;;;;;;;4.70;1.65;;;;;;;20.38;43.10;100284.94;5015278;28;20600;-69
2023/12/29 07:21:18;;;;;;;1.90;1.27;;;;;;;20.38;43.18;100287.56;5064228;28;20040;-70
2023/12/29 07:23:43;;;;;;;4.40;1.58;;;;;;;20.38;43.07;100285.75;5015863;28;20198;-70
2023/12/29 07:26:09;;;;;;;2.83;0.90;;;;;;;20.38;43.06;100287.56;5062043;28;20036;-70
2023/12/29 07:28:35;;;;;;;2.25;0.93;;;;;;;20.37;43.17;100284.13;5021473;28;20780;-69
2023/12/29 07:31:01;;;;;;;3.95;1.33;;;;;;;20.38;43.10;100285.75;5057296;28;20101;-69
2023/12/29 07:33:27;;;;;;;2.22;1.13;;;;;;;20.37;43.17;100299.16;5046350;28;20040;-70
2023/12/29 07:35:53;;;;;;;2.25;1.23;;;;;;;20.35;43.17;100274.75;5060329;28;20584;-70
2023/12/29 07:38:18;;;;;;;2.40;1.27;;;;;;;20.41;43.01;100297.78;5014748;28;20085;-70
2023/12/29 07:40:44;;;;;;;4.85;1.48;;;;;;;20.39;43.20;100294.50;5063273;28;20040;-70
2023/12/29 07:43:10;;;;;;;5.07;1.67;;;;;;;20.36;43.09;100301.00;5014579;28;20051;-69
2023/12/29 07:45:37;;;;;;;4.13;1.95;;;;;;;20.39;43.09;100295.31;5063618;28;20125;-70
2023/12/29 07:48:03;;;;;;;3.40;1.30;;;;;;;20.39;43.08;100299.78;5011534;28;20045;-70
2023/12/29 07:50:29;;;;;;;2.03;1.35;;;;;;;20.38;43.11;100300.78;5048017;28;20115;-70
2023/12/29 07:52:54;;;;;;;1.85;1.27;;;;;;;20.41;43.00;100311.00;5060267;28;20096;-69
2023/12/29 07:55:20;;;;;;;3.17;1.38;;;;;;;20.27;43.07;100264.31;5015643;28;20048;-69
2023/12/29 07:57:46;;;;;;;3.92;1.23;;;;;;;20.33;43.04;100288.16;5063415;28;20040;-69
2023/12/29 08:00:14;;;;;;;2.60;1.08;;;;;;;20.39;43.12;100302.44;5013047;28;20114;-70
2023/12/29 08:02:40;;;;;;;5.13;1.10;;;;;;;20.41;43.07;100309.19;5064473;28;20128;-70
2023/12/29 08:05:08;;;;;;;2.03;1.10;;;;;;;20.29;42.98;100294.88;5013544;28;20044;-70
2023/12/29 08:07:34;;;;;;;3.22;1.60;;;;;;;20.38;43.10;100312.19;5062834;28;20043;-70
2023/12/29 08:10:00;;;;;;;3.47;1.02;;;;;;;20.41;43.01;100326.88;5046111;28;20040;-70
2023/12/29 08:12:26;;;;;;;3.75;1.40;;;;;;;20.40;42.92;100299.59;5064025;28;20040;-69
2023/12/29 08:14:52;;;;;;;3.58;1.30;;;;;;;20.39;43.09;100299.78;5011651;28;20850;-69
2023/12/29 08:17:18;;;;;;;5.22;1.38;;;;;;;20.40;43.13;100310.16;5062759;28;20047;-70
2023/12/29 08:19:43;;;;;;;3.88;1.35;;;;;;;20.43;42.81;100308.97;5014246;28;20967;-70
2023/12/29 08:22:09;;;;;;;2.08;1.10;;;;;;;20.41;43.11;100318.94;5067446;28;20101;-70
2023/12/29 08:24:34;;;;;;;2.97;1.45;;;;;;;20.35;43.17;100315.22;5025114;28;20086;-70
2023/12/29 08:27:00;;;;;;;2.47;1.13;;;;;;;20.40;43.09;100331.31;5052401;28;20051;-69
2023/12/29 08:29:25;;;;;;;5.22;1.73;;;;;;;20.39;43.13;100319.09;5023988;28;20040;-70
2023/12/29 08:31:51;;;;;;;1.60;0.77;;;;;;;20.40;43.15;100307.53;5048687;28;20056;-69
2023/12/29 08:34:17;;;;;;;2.72;1.20;;;;;;;20.42;42.98;100331.16;5011744;28;20067;-70
2023/12/29 08:36:42;;;;;;;4.57;1.60;;;;;;;20.41;42.92;100322.41;5061634;28;20736;-70
2023/12/29 08:39:09;;;;;;;2.55;1.45;;;;;;;20.41;42.92;100319.75;5012067;28;20360;-70
2023/12/29 08:41:35;;;;;;;3.00;1.02;;;;;;;20.45;42.81;100317.53;5062028;28;20051;-69
2023/12/29 08:44:00;;;;;;;3.70;1.55;;;;;;;20.43;43.15;100316.91;5011985;28;20064;-70
2023/12/29 08:46:26;;;;;;;2.38;1.23;;;;;;;20.42;42.89;100316.09;5060427;28;20043;-70
2023/12/29 08:48:52;;;;;;;2.25;1.33;;;;;;;20.44;42.83;100300.84;5011211;28;26604;-69
2023/12/29 08:51:17;;;;;;;4.43;1.33;;;;;;;20.43;42.83;100303.69;5062446;28;20436;-70
2023/12/29 08:53:43;;;;;;;1.50;0.80;;;;;;;20.43;43.00;100307.16;5045462;28;20040;-70
2023/12/29 08:56:08;;;;;;;3.00;1.42;;;;;;;20.43;43.12;100301.03;5063444;28;20043;-71
2023/12/29 08:58:34;;;;;;;3.92;1.52;;;;;;;20.47;42.84;100310.25;5014494;28;20067;-76
2023/12/29 09:00:59;;;;;;;4.75;1.38;;;;;;;20.50;43.09;100310.66;5062494;28;20067;-71
2023/12/29 09:03:25;;;;;;;3.30;1.30;;;;;;;20.40;43.08;100285.53;5017148;28;20029;-72
2023/12/29 09:05:50;;;;;;;2.95;1.20;;;;;;;20.47;43.12;100303.13;5061069;28;20060;-71
2023/12/29 09:08:16;;;;;;;6.10;1.50;;;;;;;20.43;43.08;100304.50;5017039;28;20052;-73
2023/12/29 09:10:42;;;;;;;6.10;1.33;;;;;;;20.47;43.08;100305.78;5069009;28;20414;-72
2023/12/29 09:13:09;;;;;;;3.85;1.67;;;;;;;20.49;42.95;100309.03;5016894;28;20531;-73
2023/12/29 09:15:35;;;;;;;5.40;1.50;;;;;;;20.47;42.84;100311.06;5063616;28;20155;-73
2023/12/29 09:18:00;;;;;;;4.05;1.50;;;;;;;20.50;42.90;100313.31;5047613;28;20125;-73
2023/12/29 09:20:26;;;;;;;3.47;1.60;;;;;;;20.51;42.76;100307.00;5065025;28;20044;-74
2023/12/29 09:22:51;;;;;;;9.63;2.13;;;;;;;20.50;42.95;100304.56;5017981;28;22441;-74
2023/12/29 09:25:17;;;;;;;4.93;1.50;;;;;;;20.43;42.91;100285.19;5063296;28;20044;-72
2023/12/29 09:27:44;;;;;;;5.43;2.00;;;;;;;20.51;42.75;100308.84;5017845;28;21147;-73
2023/12/29 09:30:10;;;;;;;2.97;1.35;;;;;;;20.49;42.88;100324.91;5066023;28;20733;-73
2023/12/29 09:32:35;;;;;;;5.38;1.95;;;;;;;20.51;42.66;100317.59;5017403;28;20037;-73
2023/12/29 09:35:01;;;;;;;3.17;1.42;;;;;;;20.48;42.74;100307.41;5066938;28;20464;-73
2023/12/29 09:37:26;;;;;;;4.03;1.42;;;;;;;20.52;42.55;100321.03;5041859;28;20480;-74
2023/12/29 09:39:52;;;;;;;3.95;1.40;;;;;;;20.50;42.84;100297.44;5040477;28;20082;-73
2023/12/29 09:42:25;;;;;;;5.05;1.95;;;;;;;20.50;42.87;100299.28;5047446;28;20044;-73
2023/12/29 09:44:51;;;;;;;3.47;1.38;;;;;;;20.49;42.93;100295.00;5063791;28;20047;-72
2023/12/29 09:47:23;;;;;;;4.03;1.90;;;;;;;20.56;42.59;100310.88;5013643;28;20040;-75
2023/12/29 09:49:49;;;;;;;2.88;1.30;;;;;;;20.54;42.81;100323.50;5063267;28;20028;-73
2023/12/29 09:52:18;;;;;;;3.50;1.10;;;;;;;20.46;42.65;100293.53;5016483;28;20151;-73
2023/12/29 09:54:44;;;;;;;5.43;1.67;;;;;;;20.49;42.75;100297.63;5062412;28;20468;-73
2023/12/29 09:57:10;;;;;;;3.75;1.05;;;;;;;20.57;42.65;100315.16;4996277;28;20033;-71
2023/12/29 09:59:38;;;;;;;4.03;1.75;;;;;;;20.57;42.47;100308.03;5065821;28;20036;-72
2023/12/29 10:02:14;;;;;;;5.35;1.60;;;;;;;20.59;42.74;100299.91;5020137;28;20060;-72
2023/12/29 10:04:39;;;;;;;4.88;1.35;;;;;;;20.57;42.67;100302.75;5052240;28;20085;-72
2023/12/29 10:07:07;;;;;;;4.32;1.67;;;;;;;20.57;42.74;100294.81;5064238;28;20048;-73
2023/12/29 10:09:34;;;;;;;3.58;2.08;;;;;;;20.56;42.76;100287.06;5013717;28;20115;-72
2023/12/29 10:12:03;;;;;;;3.28;1.67;;;;;;;20.59;42.36;100297.25;5045355;28;20040;-73
2023/12/29 10:14:44;;;;;;;2.87;0.90;;;;;;;20.41;42.52;100274.81;5016103;28;20369;-73
2023/12/29 10:17:19;;;;;;;3.25;1.63;;;;;;;20.52;42.69;100297.25;5062443;28;20469;-73
2023/12/29 10:19:58;;;;;;;3.47;1.55;;;;;;;20.51;42.59;100307.00;5017345;28;20043;-74
2023/12/29 10:22:46;;;;;;;3.80;1.60;;;;;;;20.57;42.60;100318.63;5078737;28;20051;-72
2023/12/29 10:25:12;;;;;;;3.35;1.10;;;;;;;20.55;42.72;100311.91;5044915;28;20199;-73
2023/12/29 10:27:38;;;;;;;3.75;1.40;;;;;;;20.59;42.64;100313.94;5065510;28;20044;-71
2023/12/29 10:30:12;;;;;;;2.70;1.50;;;;;;;20.59;42.38;100313.94;5016650;28;20048;-73
2023/12/29 10:32:37;;;;;;;4.25;1.45;;;;;;;20.50;42.70;100302.72;5064746;28;20070;-73
2023/12/29 10:35:10;;;;;;;2.55;1.40;;;;;;;20.44;42.36;100290.28;5018401;28;20040;-72
2023/12/29 10:37:36;;;;;;;5.82;1.45;;;;;;;20.59;42.44;100315.78;5057751;28;20126;-73
2023/12/29 10:40:02;;;;;;;3.42;1.33;;;;;;;20.59;42.63;100315.78;5014986;28;20036;-73
2023/12/29 10:42:28;;;;;;;6.22;1.77;;;;;;;20.51;42.21;100308.84;5058161;28;20497;-69
2023/12/29 10:45:20;;;;;;;4.05;1.65;;;;;;;20.19;43.25;100311.06;4993429;28;20174;-72
2023/12/29 10:47:46;;;;;;;3.30;1.55;;;;;;;20.13;43.31;100306.56;5041167;28;20056;-73
2023/12/29 10:50:12;;;;;;;4.63;1.98;;;;;;;20.11;43.34;100300.66;5059960;28;20349;-74
2023/12/29 10:52:40;;;;;;;5.97;1.73;;;;;;;20.08;43.50;100319.53;5008790;28;20040;-72
2023/12/29 10:55:11;;;;;;;6.30;1.90;;;;;;;20.08;43.32;100330.09;5060282;28;20040;-72
2023/12/29 10:57:40;;;;;;;7.25;1.83;;;;;;;20.09;43.28;100321.16;5008150;28;20048;-73
2023/12/29 11:00:07;;;;;;;5.00;1.45;;;;;;;20.09;43.42;100333.56;5055635;28;20656;-73
2023/12/29 11:02:34;;;;;;;4.20;1.38;;;;;;;19.96;43.37;100317.63;5008649;28;20032;-73
2023/12/29 11:05:07;;;;;;;4.03;1.50;;;;;;;20.06;43.35;100340.06;5059647;28;20090;-73
2023/12/29 11:07:37;;;;;;;5.00;1.67;;;;;;;20.07;43.27;100344.31;4992078;28;20052;-74
2023/12/29 11:10:05;;;;;;;5.75;1.42;;;;;;;20.08;43.18;100347.78;5044066;28;20442;-73
2023/12/29 11:12:35;;;;;;;3.60;1.08;;;;;;;20.07;43.27;100328.47;5060741;28;20045;-73
2023/12/29 11:15:03;;;;;;;6.60;1.52;;;;;;;20.04;43.17;100323.56;5012755;28;20040;-73
2023/12/29 11:17:31;;;;;;;5.15;1.77;;;;;;;20.06;43.27;100316.25;5062722;28;20066;-71
2023/12/29 11:19:58;;;;;;;3.90;1.50;;;;;;;20.07;43.34;100314.44;5010100;28;20056;-72
2023/12/29 11:22:26;;;;;;;5.80;1.70;;;;;;;20.07;43.20;100325.81;5061534;28;20044;-72